createdAt,value
2023-03-13T00:00:58.497Z,8.87
2023-03-13T00:02:01.374Z,8.79
2023-03-13T00:03:03.922Z,8.83
2023-03-13T00:04:06.782Z,8.80
2023-03-13T00:05:09.446Z,8.80
2023-03-13T00:06:12.416Z,8.88
2023-03-13T00:07:14.942Z,8.83
2023-03-13T00:08:17.459Z,8.79
2023-03-13T00:09:19.980Z,8.82
2023-03-13T00:10:22.388Z,8.83
2023-03-13T00:11:25.020Z,8.81
2023-03-13T00:12:27.428Z,8.80
2023-03-13T00:13:29.942Z,8.84
2023-03-13T00:14:32.342Z,8.87
2023-03-13T00:15:35.350Z,8.74
2023-03-13T00:16:39.697Z,8.86
2023-03-13T00:17:42.314Z,8.84
2023-03-13T00:18:47.354Z,8.91
2023-03-13T00:19:50.825Z,8.85
2023-03-13T00:21:07.143Z,9.00
2023-03-13T00:22:09.791Z,8.90
2023-03-13T00:23:12.314Z,8.88
2023-03-13T00:24:15.070Z,8.84
2023-03-13T00:25:17.709Z,8.86
2023-03-13T00:26:22.387Z,8.92
2023-03-13T00:27:25.153Z,8.85
2023-03-13T00:28:32.323Z,8.86
2023-03-13T00:29:35.350Z,8.85
2023-03-13T00:30:37.852Z,8.80
2023-03-13T00:31:40.535Z,8.81
2023-03-13T00:32:46.212Z,8.79
2023-03-13T00:33:51.937Z,8.84
2023-03-13T00:34:54.433Z,8.84
2023-03-13T00:36:05.845Z,8.97
2023-03-13T00:37:08.355Z,8.87
2023-03-13T00:38:10.876Z,8.99
2023-03-13T00:39:13.425Z,8.97
2023-03-13T00:40:16.040Z,8.88
2023-03-13T00:41:20.969Z,8.93
2023-03-13T00:42:23.358Z,8.86
2023-03-13T00:43:25.757Z,8.82
2023-03-13T00:44:28.158Z,8.93
2023-03-13T00:45:30.699Z,8.92
2023-03-13T00:46:33.261Z,8.86
2023-03-13T00:47:35.843Z,8.82
2023-03-13T00:48:38.729Z,8.82
2023-03-13T00:49:41.121Z,8.78
2023-03-13T00:50:43.660Z,8.80
2023-03-13T00:51:46.053Z,8.75
2023-03-13T00:52:48.566Z,8.76
2023-03-13T00:53:51.202Z,8.77
2023-03-13T00:54:53.726Z,8.74
2023-03-13T00:56:07.777Z,8.82
2023-03-13T00:57:10.285Z,8.73
2023-03-13T00:58:12.688Z,8.77
2023-03-13T00:59:15.509Z,8.68
2023-03-13T01:00:18.330Z,8.71
2023-03-13T01:01:32.760Z,8.73
2023-03-13T01:02:42.068Z,8.78
2023-03-13T01:03:49.533Z,8.78
2023-03-13T01:04:54.098Z,8.68
2023-03-13T01:06:00.705Z,8.68
2023-03-13T01:07:03.457Z,8.63
2023-03-13T01:08:06.102Z,8.56
2023-03-13T01:09:11.024Z,8.55
2023-03-13T01:10:13.660Z,8.58
2023-03-13T01:11:21.584Z,8.61
2023-03-13T01:12:24.107Z,8.57
2023-03-13T01:13:27.463Z,8.53
2023-03-13T01:14:30.110Z,8.42
2023-03-13T01:15:35.529Z,8.47
2023-03-13T01:16:39.015Z,8.42
2023-03-13T01:17:44.278Z,8.50
2023-03-13T01:18:51.110Z,8.47
2023-03-13T01:19:56.872Z,8.51
2023-03-13T01:20:59.391Z,8.39
2023-03-13T01:22:01.919Z,8.36
2023-03-13T01:23:04.441Z,8.36
2023-03-13T01:24:07.195Z,8.40
2023-03-13T01:25:09.841Z,8.42
2023-03-13T01:26:12.489Z,8.43
2023-03-13T01:27:14.995Z,8.38
2023-03-13T01:28:18.258Z,8.39
2023-03-13T01:29:20.640Z,8.30
2023-03-13T01:30:23.778Z,8.39
2023-03-13T01:31:29.280Z,8.41
2023-03-13T01:32:33.886Z,8.42
2023-03-13T01:33:38.168Z,8.40
2023-03-13T01:34:40.810Z,8.38
2023-03-13T01:35:43.821Z,8.33
2023-03-13T01:36:50.552Z,8.30
2023-03-13T01:37:52.928Z,8.30
2023-03-13T01:38:57.371Z,8.31
2023-03-13T01:40:00.134Z,8.20
2023-03-13T01:41:03.614Z,8.20
2023-03-13T01:42:06.738Z,8.17
2023-03-13T01:43:27.572Z,8.38
2023-03-13T01:44:49.934Z,8.45
2023-03-13T01:45:55.154Z,8.43
2023-03-13T01:46:59.414Z,8.31
2023-03-13T01:48:02.059Z,8.32
2023-03-13T01:49:29.530Z,8.38
2023-03-13T01:50:38.893Z,8.20
2023-03-13T01:51:59.655Z,8.35
2023-03-13T01:53:02.296Z,8.19
2023-03-13T01:54:15.739Z,8.38
2023-03-13T01:55:18.630Z,8.25
2023-03-13T01:56:50.064Z,8.47
2023-03-13T01:57:54.752Z,8.41
2023-03-13T01:59:00.140Z,8.43
2023-03-13T02:00:14.189Z,8.53
2023-03-13T02:01:19.033Z,8.46
2023-03-13T02:02:22.869Z,8.44
2023-03-13T02:03:27.505Z,8.43
2023-03-13T02:04:35.185Z,8.43
2023-03-13T02:05:39.022Z,8.36
2023-03-13T02:06:46.347Z,8.26
2023-03-13T02:07:53.909Z,8.30
2023-03-13T02:09:01.837Z,8.29
2023-03-13T02:10:05.067Z,8.24
2023-03-13T02:11:42.266Z,8.47
2023-03-13T02:12:45.748Z,8.30
2023-03-13T02:13:50.190Z,8.33
2023-03-13T02:14:54.158Z,8.32
2023-03-13T02:15:57.336Z,8.29
2023-03-13T02:17:01.356Z,8.32
2023-03-13T02:18:04.039Z,8.38
2023-03-13T02:19:18.392Z,8.43
2023-03-13T02:20:22.485Z,8.35
2023-03-13T02:21:35.312Z,8.45
2023-03-13T02:22:45.152Z,8.54
2023-03-13T02:23:57.396Z,8.45
2023-03-13T02:25:25.959Z,8.46
2023-03-13T02:26:32.312Z,8.32
2023-03-13T02:27:34.955Z,8.35
2023-03-13T02:28:39.641Z,8.43
2023-03-13T02:29:47.199Z,8.53
2023-03-13T02:30:54.039Z,8.57
2023-03-13T02:31:56.689Z,8.38
2023-03-13T02:33:00.717Z,8.47
2023-03-13T02:34:04.722Z,8.46
2023-03-13T02:35:14.568Z,8.59
2023-03-13T02:36:18.764Z,8.46
2023-03-13T02:37:22.238Z,8.45
2023-03-13T02:38:27.525Z,8.49
2023-03-13T02:39:32.205Z,8.46
2023-03-13T02:40:39.044Z,8.51
2023-03-13T02:41:45.185Z,8.48
2023-03-13T02:42:49.244Z,8.48
2023-03-13T02:43:51.770Z,8.44
2023-03-13T02:44:54.898Z,8.58
2023-03-13T02:46:05.806Z,8.64
2023-03-13T02:47:10.617Z,8.55
2023-03-13T02:48:13.250Z,8.53
2023-03-13T02:49:23.335Z,8.67
2023-03-13T02:50:26.221Z,8.51
2023-03-13T02:51:46.151Z,8.68
2023-03-13T02:52:56.347Z,8.67
2023-03-13T02:54:03.181Z,8.56
2023-03-13T02:55:10.975Z,8.64
2023-03-13T02:56:16.991Z,8.64
2023-03-13T02:57:19.620Z,8.52
2023-03-13T02:58:24.913Z,8.55
2023-03-13T02:59:27.541Z,8.56
2023-03-13T03:00:30.105Z,8.56
2023-03-13T03:01:33.079Z,8.49
2023-03-13T03:02:35.591Z,8.50
2023-03-13T03:03:39.469Z,8.41
2023-03-13T03:04:41.948Z,8.44
2023-03-13T03:05:46.628Z,8.48
2023-03-13T03:06:50.230Z,8.49
2023-03-13T03:07:53.470Z,8.49
2023-03-13T03:08:55.872Z,8.61
2023-03-13T03:09:58.991Z,8.51
2023-03-13T03:11:01.991Z,8.53
2023-03-13T03:12:04.753Z,8.49
2023-03-13T03:13:08.112Z,8.44
2023-03-13T03:14:11.843Z,8.51
2023-03-13T03:15:18.579Z,8.55
2023-03-13T03:16:23.416Z,8.51
2023-03-13T03:17:26.117Z,8.55
2023-03-13T03:18:29.356Z,8.48
2023-03-13T03:19:31.997Z,8.45
2023-03-13T03:20:35.851Z,8.46
2023-03-13T03:21:38.961Z,8.51
2023-03-13T03:22:41.618Z,8.46
2023-03-13T03:23:44.126Z,8.56
2023-03-13T03:24:46.875Z,8.57
2023-03-13T03:25:49.396Z,8.55
2023-03-13T03:26:52.040Z,8.58
2023-03-13T03:28:01.044Z,8.57
2023-03-13T03:29:04.183Z,8.48
2023-03-13T03:30:07.400Z,8.49
2023-03-13T03:31:14.394Z,8.58
2023-03-13T03:32:17.012Z,8.57
2023-03-13T03:33:19.635Z,8.62
2023-03-13T03:34:22.523Z,8.64
2023-03-13T03:35:25.526Z,8.72
2023-03-13T03:36:29.001Z,8.65
2023-03-13T03:37:31.408Z,8.73
2023-03-13T03:38:36.559Z,8.68
2023-03-13T03:39:39.454Z,8.76
2023-03-13T03:40:42.573Z,8.75
2023-03-13T03:41:45.203Z,8.69
2023-03-13T03:42:48.084Z,8.70
2023-03-13T03:43:50.609Z,8.72
2023-03-13T03:44:56.975Z,8.63
2023-03-13T03:45:59.527Z,8.66
2023-03-13T03:47:02.697Z,8.71
2023-03-13T03:48:09.684Z,8.67
2023-03-13T03:49:12.216Z,8.64
2023-03-13T03:50:14.849Z,8.72
2023-03-13T03:51:27.719Z,8.65
2023-03-13T03:52:30.207Z,8.72
2023-03-13T03:53:32.973Z,8.64
2023-03-13T03:54:35.530Z,8.61
2023-03-13T03:55:38.974Z,8.67
2023-03-13T03:56:41.614Z,8.65
2023-03-13T03:57:44.141Z,8.69
2023-03-13T03:58:51.457Z,8.67
2023-03-13T04:00:16.136Z,8.65
2023-03-13T04:01:24.583Z,8.65
2023-03-13T04:02:27.617Z,8.72
2023-03-13T04:03:30.325Z,8.73
2023-03-13T04:04:33.100Z,8.75
2023-03-13T04:05:47.981Z,8.71
2023-03-13T04:06:51.104Z,8.73
2023-03-13T04:07:53.686Z,8.70
2023-03-13T04:08:56.266Z,8.71
2023-03-13T04:10:00.829Z,8.81
2023-03-13T04:11:10.792Z,8.76
2023-03-13T04:12:16.789Z,8.77
2023-03-13T04:13:21.468Z,8.71
2023-03-13T04:14:24.473Z,8.80
2023-03-13T04:15:27.354Z,8.81
2023-03-13T04:16:30.037Z,8.82
2023-03-13T04:17:32.631Z,8.84
2023-03-13T04:18:35.632Z,8.84
2023-03-13T04:19:38.632Z,8.82
2023-03-13T04:20:41.153Z,8.85
2023-03-13T04:21:43.914Z,8.89
2023-03-13T04:22:50.396Z,8.96
2023-03-13T04:23:53.156Z,8.89
2023-03-13T04:24:56.521Z,8.93
2023-03-13T04:25:59.281Z,8.93
2023-03-13T04:27:03.723Z,8.93
2023-03-13T04:28:06.599Z,8.85
2023-03-13T04:29:14.878Z,8.87
2023-03-13T04:30:37.619Z,8.90
2023-03-13T04:31:52.112Z,8.93
2023-03-13T04:33:06.363Z,8.93
2023-03-13T04:34:26.050Z,8.93
2023-03-13T04:36:04.624Z,9.04
2023-03-13T04:37:21.725Z,9.02
2023-03-13T04:38:42.726Z,9.10
2023-03-13T04:39:58.699Z,9.06
2023-03-13T04:41:25.089Z,9.02
2023-03-13T04:42:50.648Z,9.00
2023-03-13T04:44:13.090Z,9.08
2023-03-13T04:45:35.781Z,9.04
2023-03-13T04:46:56.894Z,9.08
2023-03-13T04:48:09.612Z,9.07
2023-03-13T04:49:29.785Z,9.48
2023-03-13T04:50:32.293Z,9.63
2023-03-13T04:51:57.733Z,9.61
2023-03-13T04:53:20.537Z,9.68
2023-03-13T04:55:01.111Z,9.63
2023-03-13T04:56:42.255Z,9.71
2023-03-13T04:58:00.879Z,9.68
2023-03-13T04:59:39.260Z,9.77
2023-03-13T05:01:13.890Z,9.78
2023-03-13T05:02:44.903Z,9.76
2023-03-13T05:04:02.194Z,9.73
2023-03-13T05:05:23.374Z,9.83
2023-03-13T05:06:28.585Z,9.85
2023-03-13T05:07:49.343Z,10.08
2023-03-13T05:09:14.668Z,9.96
2023-03-13T05:10:36.030Z,9.91
2023-03-13T05:11:40.369Z,9.94
2023-03-13T05:12:53.907Z,9.87
2023-03-13T05:14:22.592Z,9.89
2023-03-13T05:15:43.487Z,9.88
2023-03-13T05:17:04.238Z,9.95
2023-03-13T05:18:25.250Z,10.16
2023-03-13T05:19:41.102Z,9.48
2023-03-13T05:21:10.475Z,9.98
2023-03-13T05:22:45.158Z,9.92
2023-03-13T05:23:47.563Z,9.98
2023-03-13T05:25:14.092Z,10.06
2023-03-13T05:26:35.336Z,10.04
2023-03-13T05:27:56.448Z,10.04
2023-03-13T05:29:19.362Z,10.12
2023-03-13T05:30:35.685Z,10.17
2023-03-13T05:31:58.364Z,10.01
2023-03-13T05:33:32.929Z,10.16
2023-03-13T05:34:49.506Z,10.16
2023-03-13T05:36:10.362Z,10.39
2023-03-13T05:37:18.768Z,10.23
2023-03-13T05:38:41.807Z,10.29
2023-03-13T05:39:57.528Z,10.25
2023-03-13T05:41:13.726Z,10.27
2023-03-13T05:42:49.376Z,10.30
2023-03-13T05:44:04.130Z,10.37
2023-03-13T05:45:26.809Z,10.30
2023-03-13T05:46:48.237Z,10.33
2023-03-13T05:48:02.586Z,10.42
2023-03-13T05:49:04.988Z,10.35
2023-03-13T05:50:33.658Z,10.45
2023-03-13T05:52:02.094Z,10.39
2023-03-13T05:53:23.584Z,10.44
2023-03-13T05:54:46.376Z,10.46
2023-03-13T05:56:27.418Z,10.47
2023-03-13T05:57:43.973Z,10.44
2023-03-13T05:59:03.067Z,10.50
2023-03-13T06:00:44.463Z,10.58
2023-03-13T06:02:16.141Z,10.60
2023-03-13T06:03:21.334Z,10.69
2023-03-13T06:04:26.620Z,10.59
2023-03-13T06:05:29.581Z,10.65
2023-03-13T06:06:32.458Z,10.71
2023-03-13T06:07:36.058Z,10.68
2023-03-13T06:08:38.950Z,10.74
2023-03-13T06:09:41.460Z,10.77
2023-03-13T06:10:44.700Z,10.66
2023-03-13T06:11:47.364Z,10.71
2023-03-13T06:12:54.547Z,10.91
2023-03-13T06:13:58.502Z,10.89
2023-03-13T06:15:12.110Z,10.90
2023-03-13T06:16:33.233Z,10.87
2023-03-13T06:17:53.704Z,10.91
2023-03-13T06:18:56.308Z,10.93
2023-03-13T06:19:58.872Z,10.91
2023-03-13T06:21:03.539Z,10.89
2023-03-13T06:22:06.450Z,10.90
2023-03-13T06:23:08.947Z,10.94
2023-03-13T06:24:11.351Z,10.92
2023-03-13T06:25:13.989Z,11.00
2023-03-13T06:26:16.508Z,11.06
2023-03-13T06:27:19.030Z,10.97
2023-03-13T06:28:21.675Z,11.05
2023-03-13T06:29:24.550Z,11.10
2023-03-13T06:30:27.075Z,11.08
2023-03-13T06:31:29.659Z,11.18
2023-03-13T06:32:32.332Z,11.14
2023-03-13T06:33:35.118Z,11.15
2023-03-13T06:34:37.884Z,11.20
2023-03-13T06:35:55.353Z,11.23
2023-03-13T06:37:00.568Z,11.17
2023-03-13T06:38:03.320Z,11.17
2023-03-13T06:39:05.973Z,11.21
2023-03-13T06:40:09.215Z,11.28
2023-03-13T06:41:11.727Z,11.36
2023-03-13T06:42:14.133Z,11.12
2023-03-13T06:43:16.769Z,11.47
2023-03-13T06:44:19.171Z,11.55
2023-03-13T06:45:21.723Z,11.54
2023-03-13T06:46:24.902Z,11.61
2023-03-13T06:47:27.446Z,11.60
2023-03-13T06:48:29.844Z,11.58
2023-03-13T06:49:32.256Z,11.61
2023-03-13T06:50:38.974Z,11.79
2023-03-13T06:51:41.486Z,11.69
2023-03-13T06:52:44.477Z,11.73
2023-03-13T06:53:47.620Z,11.74
2023-03-13T06:54:50.146Z,11.69
2023-03-13T06:55:52.772Z,11.80
2023-03-13T06:56:55.309Z,11.71
2023-03-13T06:57:57.831Z,11.80
2023-03-13T06:59:00.376Z,11.76
2023-03-13T07:00:02.850Z,11.83
2023-03-13T07:01:13.664Z,12.03
2023-03-13T07:02:15.951Z,12.02
2023-03-13T07:03:18.348Z,11.81
2023-03-13T07:04:20.910Z,11.90
2023-03-13T07:05:23.261Z,11.91
2023-03-13T07:06:27.028Z,11.91
2023-03-13T07:07:32.096Z,11.91
2023-03-13T07:08:35.864Z,11.94
2023-03-13T07:09:38.382Z,11.93
2023-03-13T07:10:43.275Z,11.99
2023-03-13T07:11:46.188Z,11.94
2023-03-13T07:12:48.708Z,11.93
2023-03-13T07:13:51.229Z,11.99
2023-03-13T07:14:53.748Z,12.02
2023-03-13T07:15:56.521Z,11.92
2023-03-13T07:17:00.204Z,12.01
2023-03-13T07:18:02.873Z,12.06
2023-03-13T07:19:05.390Z,12.05
2023-03-13T07:20:10.749Z,12.10
2023-03-13T07:21:14.280Z,12.07
2023-03-13T07:22:16.807Z,12.10
2023-03-13T07:23:19.348Z,12.10
2023-03-13T07:24:21.985Z,12.09
2023-03-13T07:25:24.594Z,12.13
2023-03-13T07:26:27.178Z,12.14
2023-03-13T07:27:29.523Z,12.19
2023-03-13T07:28:33.446Z,12.24
2023-03-13T07:29:36.851Z,12.15
2023-03-13T07:30:39.360Z,12.17
2023-03-13T07:31:42.029Z,12.14
2023-03-13T07:32:44.727Z,12.17
2023-03-13T07:33:48.031Z,12.22
2023-03-13T07:34:50.528Z,12.18
2023-03-13T07:35:53.413Z,11.90
2023-03-13T07:36:55.926Z,11.84
2023-03-13T07:37:58.447Z,11.77
2023-03-13T07:39:00.966Z,11.82
2023-03-13T07:40:04.886Z,11.81
2023-03-13T07:41:07.577Z,11.80
2023-03-13T07:42:13.328Z,11.97
2023-03-13T07:43:16.931Z,11.83
2023-03-13T07:44:19.452Z,11.82
2023-03-13T07:45:21.974Z,11.86
2023-03-13T07:46:24.660Z,11.88
2023-03-13T07:47:27.369Z,11.94
2023-03-13T07:48:36.853Z,12.03
2023-03-13T07:49:41.301Z,11.93
2023-03-13T07:50:43.860Z,11.94
2023-03-13T07:51:48.254Z,11.93
2023-03-13T07:52:50.899Z,11.95
2023-03-13T07:53:53.777Z,11.98
2023-03-13T07:54:56.322Z,11.97
2023-03-13T07:56:10.728Z,12.12
2023-03-13T07:57:13.607Z,12.05
2023-03-13T07:58:16.221Z,12.02
2023-03-13T07:59:18.975Z,12.04
2023-03-13T08:00:22.220Z,12.03
2023-03-13T08:01:30.311Z,12.15
2023-03-13T08:02:34.199Z,12.11
2023-03-13T08:03:37.512Z,12.11
2023-03-13T08:04:40.704Z,12.18
2023-03-13T08:05:43.464Z,12.13
2023-03-13T08:06:45.984Z,12.10
2023-03-13T08:07:48.384Z,12.07
2023-03-13T08:08:51.869Z,12.06
2023-03-13T08:09:54.385Z,12.03
2023-03-13T08:11:01.704Z,12.22
2023-03-13T08:12:05.133Z,12.22
2023-03-13T08:13:09.018Z,12.17
2023-03-13T08:14:11.551Z,12.17
2023-03-13T08:15:14.075Z,12.10
2023-03-13T08:16:22.261Z,12.14
2023-03-13T08:17:24.869Z,12.05
2023-03-13T08:18:27.410Z,12.02
2023-03-13T08:19:30.045Z,12.09
2023-03-13T08:20:32.553Z,12.03
2023-03-13T08:21:37.241Z,12.11
2023-03-13T08:22:39.751Z,12.06
2023-03-13T08:23:42.869Z,12.04
2023-03-13T08:24:45.395Z,12.09
2023-03-13T08:25:47.796Z,12.11
2023-03-13T08:26:50.313Z,12.07
2023-03-13T08:27:52.834Z,12.12
2023-03-13T08:28:57.776Z,12.22
2023-03-13T08:30:00.282Z,12.14
2023-03-13T08:31:11.758Z,12.22
2023-03-13T08:32:14.194Z,12.10
2023-03-13T08:33:16.713Z,12.10
2023-03-13T08:34:19.480Z,12.14
2023-03-13T08:35:22.009Z,12.12
2023-03-13T08:36:26.917Z,12.20
2023-03-13T08:37:29.441Z,12.12
2023-03-13T08:38:31.967Z,12.13
2023-03-13T08:39:34.478Z,12.13
2023-03-13T08:40:37.006Z,12.20
2023-03-13T08:41:40.875Z,12.23
2023-03-13T08:42:43.362Z,12.20
2023-03-13T08:43:46.988Z,12.23
2023-03-13T08:44:49.602Z,12.21
2023-03-13T08:45:58.263Z,12.37
2023-03-13T08:47:00.894Z,12.25
2023-03-13T08:48:03.404Z,12.29
2023-03-13T08:49:08.093Z,12.30
2023-03-13T08:50:10.989Z,12.31
2023-03-13T08:51:15.774Z,12.42
2023-03-13T08:52:18.295Z,12.37
2023-03-13T08:53:20.690Z,12.37
2023-03-13T08:54:23.335Z,12.42
2023-03-13T08:55:26.641Z,12.47
2023-03-13T08:56:32.823Z,12.54
2023-03-13T08:57:35.342Z,12.48
2023-03-13T08:58:38.218Z,12.52
2023-03-13T08:59:40.976Z,12.57
2023-03-13T09:00:43.625Z,12.52
2023-03-13T09:01:46.141Z,12.47
2023-03-13T09:02:48.823Z,12.50
2023-03-13T09:03:52.744Z,12.53
2023-03-13T09:04:55.278Z,12.51
2023-03-13T09:05:58.985Z,12.58
2023-03-13T09:07:01.627Z,12.53
2023-03-13T09:08:04.505Z,12.53
2023-03-13T09:09:08.347Z,12.63
2023-03-13T09:10:11.128Z,12.49
2023-03-13T09:11:19.758Z,12.55
2023-03-13T09:12:30.806Z,12.47
2023-03-13T09:13:36.309Z,12.51
2023-03-13T09:14:38.832Z,12.40
2023-03-13T09:15:41.394Z,12.44
2023-03-13T09:16:46.395Z,12.41
2023-03-13T09:17:48.941Z,12.39
2023-03-13T09:18:52.444Z,12.38
2023-03-13T09:20:00.457Z,12.34
2023-03-13T09:21:05.842Z,12.42
2023-03-13T09:22:09.689Z,12.31
2023-03-13T09:23:12.080Z,12.35
2023-03-13T09:24:14.591Z,12.37
2023-03-13T09:25:17.369Z,12.48
2023-03-13T09:26:22.973Z,12.61
2023-03-13T09:27:25.877Z,12.62
2023-03-13T09:28:29.243Z,12.62
2023-03-13T09:29:33.346Z,12.68
2023-03-13T09:30:35.897Z,12.89
2023-03-13T09:31:38.637Z,13.20
2023-03-13T09:32:41.028Z,13.31
2023-03-13T09:33:45.083Z,13.35
2023-03-13T09:34:47.718Z,13.36
2023-03-13T09:35:53.065Z,13.32
2023-03-13T09:36:55.526Z,13.27
2023-03-13T09:37:58.040Z,13.23
2023-03-13T09:39:00.683Z,13.31
2023-03-13T09:40:04.412Z,13.30
2023-03-13T09:41:45.567Z,13.60
2023-03-13T09:42:51.449Z,13.51
2023-03-13T09:44:13.922Z,13.45
2023-03-13T09:45:24.891Z,13.50
2023-03-13T09:46:57.469Z,13.54
2023-03-13T09:48:14.017Z,13.71
2023-03-13T09:49:31.424Z,13.83
2023-03-13T09:50:43.893Z,13.88
2023-03-13T09:51:53.015Z,13.93
2023-03-13T09:53:00.815Z,13.90
2023-03-13T09:54:15.090Z,13.90
2023-03-13T09:55:24.702Z,13.98
2023-03-13T09:56:34.294Z,14.01
2023-03-13T09:57:45.694Z,13.91
2023-03-13T09:58:55.061Z,14.07
2023-03-13T10:00:16.530Z,14.11
2023-03-13T10:01:24.235Z,14.15
2023-03-13T10:02:36.824Z,14.08
2023-03-13T10:03:44.856Z,14.17
2023-03-13T10:05:10.176Z,14.33
2023-03-13T10:06:19.548Z,14.33
2023-03-13T10:07:22.187Z,14.27
2023-03-13T10:08:31.057Z,14.44
2023-03-13T10:09:34.329Z,14.36
2023-03-13T10:10:43.063Z,14.38
2023-03-13T10:11:56.261Z,14.43
2023-03-13T10:13:10.421Z,14.50
2023-03-13T10:14:43.821Z,14.59
2023-03-13T10:15:50.355Z,14.73
2023-03-13T10:16:56.752Z,14.78
2023-03-13T10:18:06.115Z,15.04
2023-03-13T10:19:23.503Z,15.26
2023-03-13T10:20:28.200Z,15.11
2023-03-13T10:21:36.342Z,15.08
2023-03-13T10:22:40.307Z,15.17
2023-03-13T10:24:05.384Z,15.40
2023-03-13T10:25:29.034Z,15.33
2023-03-13T10:26:37.082Z,15.43
2023-03-13T10:27:51.171Z,15.55
2023-03-13T10:28:54.605Z,15.33
2023-03-13T10:29:57.116Z,15.72
2023-03-13T10:31:10.142Z,16.20
2023-03-13T10:32:15.596Z,16.04
2023-03-13T10:33:20.291Z,15.87
2023-03-13T10:34:22.921Z,15.82
2023-03-13T10:35:33.887Z,15.82
2023-03-13T10:36:40.436Z,15.96
2023-03-13T10:37:43.916Z,15.87
2023-03-13T10:38:54.763Z,15.77
2023-03-13T10:40:15.264Z,15.64
2023-03-13T10:41:31.942Z,15.66
2023-03-13T10:42:37.441Z,15.43
2023-03-13T10:43:51.239Z,15.45
2023-03-13T10:45:00.373Z,15.33
2023-03-13T10:46:04.087Z,15.25
2023-03-13T10:47:06.817Z,15.07
2023-03-13T10:48:27.136Z,15.15
2023-03-13T10:49:31.328Z,15.04
2023-03-13T10:50:35.526Z,14.89
2023-03-13T10:51:52.333Z,15.07
2023-03-13T10:52:55.218Z,14.91
2023-03-13T10:53:57.735Z,14.87
2023-03-13T10:55:02.894Z,15.11
2023-03-13T10:56:14.422Z,15.32
2023-03-13T10:57:19.709Z,15.46
2023-03-13T10:58:36.849Z,15.41
2023-03-13T10:59:45.982Z,15.56
2023-03-13T11:00:49.812Z,15.59
2023-03-13T11:01:54.013Z,15.63
2023-03-13T11:02:56.733Z,16.01
2023-03-13T11:04:02.499Z,16.55
2023-03-13T11:05:31.454Z,17.00
2023-03-13T11:06:35.172Z,16.86
2023-03-13T11:07:40.484Z,16.79
2023-03-13T11:08:43.030Z,16.50
2023-03-13T11:09:58.456Z,16.32
2023-03-13T11:11:03.500Z,16.04
2023-03-13T11:12:14.206Z,15.83
2023-03-13T11:13:36.086Z,15.89
2023-03-13T11:14:39.868Z,15.51
2023-03-13T11:15:57.549Z,15.52
2023-03-13T11:17:21.623Z,15.60
2023-03-13T11:18:44.567Z,15.51
2023-03-13T11:20:06.386Z,15.50
2023-03-13T11:21:20.441Z,15.54
2023-03-13T11:22:38.196Z,15.56
2023-03-13T11:23:45.753Z,15.41
2023-03-13T11:24:54.024Z,15.66
2023-03-13T11:26:04.946Z,15.44
2023-03-13T11:27:15.806Z,15.36
2023-03-13T11:28:30.050Z,15.35
2023-03-13T11:29:38.282Z,15.45
2023-03-13T11:30:57.871Z,15.41
2023-03-13T11:32:07.744Z,15.55
2023-03-13T11:33:29.679Z,15.64
2023-03-13T11:34:54.279Z,15.67
2023-03-13T11:35:56.874Z,15.67
2023-03-13T11:37:03.899Z,15.86
2023-03-13T11:38:20.100Z,15.86
2023-03-13T11:39:51.277Z,16.05
2023-03-13T11:41:13.751Z,16.06
2023-03-13T11:42:34.956Z,16.90
2023-03-13T11:43:42.200Z,16.76
2023-03-13T11:44:47.806Z,17.26
2023-03-13T11:46:16.635Z,17.47
2023-03-13T11:47:37.602Z,17.16
2023-03-13T11:48:45.827Z,17.71
2023-03-13T11:50:00.109Z,18.08
2023-03-13T11:51:14.320Z,18.38
2023-03-13T11:52:34.245Z,19.31
2023-03-13T11:54:05.099Z,18.73
2023-03-13T11:55:29.864Z,18.74
2023-03-13T11:56:47.450Z,19.03
2023-03-13T11:57:58.906Z,19.62
2023-03-13T11:59:07.247Z,19.27
2023-03-13T12:00:31.531Z,19.97
2023-03-13T12:01:49.419Z,20.19
2023-03-13T12:02:58.610Z,20.54
2023-03-13T12:04:22.623Z,20.29
2023-03-13T12:05:29.066Z,20.15
2023-03-13T12:06:36.299Z,20.11
2023-03-13T12:07:44.731Z,20.17
2023-03-13T12:08:53.218Z,20.41
2023-03-13T12:10:10.142Z,20.69
2023-03-13T12:11:22.500Z,21.07
2023-03-13T12:12:30.658Z,20.77
2023-03-13T12:13:42.539Z,20.84
2023-03-13T12:14:51.299Z,19.58
2023-03-13T12:15:59.700Z,18.87
2023-03-13T12:17:11.705Z,18.41
2023-03-13T12:18:14.102Z,18.27
2023-03-13T12:19:24.068Z,18.45
2023-03-13T12:20:34.659Z,18.77
2023-03-13T12:21:45.459Z,18.64
2023-03-13T12:23:22.269Z,18.77
2023-03-13T12:24:44.465Z,18.67
2023-03-13T12:26:02.623Z,18.71
2023-03-13T12:27:20.227Z,18.87
2023-03-13T12:28:32.186Z,18.99
2023-03-13T12:29:51.913Z,20.05
2023-03-13T12:31:16.062Z,20.60
2023-03-13T12:32:29.880Z,20.64
2023-03-13T12:33:43.393Z,20.38
2023-03-13T12:34:54.325Z,20.02
2023-03-13T12:36:22.788Z,20.30
2023-03-13T12:37:43.638Z,20.31
2023-03-13T12:39:06.201Z,19.68
2023-03-13T12:40:16.079Z,19.30
2023-03-13T12:41:21.203Z,19.49
2023-03-13T12:42:41.120Z,19.88
2023-03-13T12:43:51.849Z,20.10
2023-03-13T12:45:04.893Z,20.05
2023-03-13T12:46:32.419Z,19.97
2023-03-13T12:47:39.929Z,19.67
2023-03-13T12:49:02.855Z,19.19
2023-03-13T12:50:23.733Z,20.02
2023-03-13T12:51:42.691Z,20.47
2023-03-13T12:53:09.690Z,20.11
2023-03-13T12:54:27.458Z,19.98
2023-03-13T12:55:46.072Z,19.15
2023-03-13T12:57:03.461Z,19.19
2023-03-13T12:58:15.214Z,19.25
2023-03-13T12:59:22.070Z,19.12
2023-03-13T13:00:28.776Z,18.92
2023-03-13T13:01:35.425Z,18.71
2023-03-13T13:02:38.496Z,18.62
2023-03-13T13:03:53.064Z,19.17
2023-03-13T13:04:57.588Z,19.64
2023-03-13T13:06:07.778Z,19.94
2023-03-13T13:07:52.538Z,19.72
2023-03-13T13:08:54.941Z,18.92
2023-03-13T13:10:09.597Z,19.18
2023-03-13T13:11:33.705Z,19.44
2023-03-13T13:12:40.660Z,19.43
2023-03-13T13:13:43.180Z,19.11
2023-03-13T13:14:48.339Z,19.65
2023-03-13T13:15:59.553Z,19.79
2023-03-13T13:17:11.033Z,19.87
2023-03-13T13:18:16.337Z,19.72
2023-03-13T13:19:24.952Z,19.64
2023-03-13T13:20:34.785Z,19.82
2023-03-13T13:21:38.150Z,19.36
2023-03-13T13:22:40.560Z,19.69
2023-03-13T13:23:48.231Z,19.88
2023-03-13T13:24:53.145Z,20.30
2023-03-13T13:26:16.672Z,20.02
2023-03-13T13:27:37.017Z,19.60
2023-03-13T13:28:39.586Z,19.00
2023-03-13T13:29:42.001Z,18.66
2023-03-13T13:30:44.512Z,18.70
2023-03-13T13:31:51.060Z,18.50
2023-03-13T13:33:17.170Z,18.50
2023-03-13T13:34:28.320Z,18.42
2023-03-13T13:35:33.500Z,18.22
2023-03-13T13:36:42.725Z,18.28
2023-03-13T13:37:47.580Z,18.31
2023-03-13T13:38:52.195Z,18.72
2023-03-13T13:40:09.957Z,19.26
2023-03-13T13:41:12.358Z,19.10
2023-03-13T13:42:30.769Z,19.28
2023-03-13T13:43:38.644Z,19.55
2023-03-13T13:44:59.058Z,19.42
2023-03-13T13:46:33.414Z,19.00
2023-03-13T13:47:36.002Z,18.84
2023-03-13T13:48:40.135Z,19.01
2023-03-13T13:49:54.628Z,19.09
2023-03-13T13:51:11.197Z,19.14
2023-03-13T13:52:13.689Z,18.97
2023-03-13T13:53:38.460Z,18.94
2023-03-13T13:54:47.287Z,18.87
2023-03-13T13:55:50.169Z,18.83
2023-03-13T13:56:58.379Z,18.68
2023-03-13T13:58:04.379Z,18.43
2023-03-13T13:59:22.088Z,18.21
2023-03-13T14:00:33.380Z,18.19
2023-03-13T14:01:37.005Z,18.21
2023-03-13T14:02:49.337Z,18.21
2023-03-13T14:03:59.309Z,18.27
2023-03-13T14:05:05.354Z,18.32
2023-03-13T14:06:29.169Z,18.07
2023-03-13T14:07:37.343Z,18.10
2023-03-13T14:08:42.375Z,18.30
2023-03-13T14:09:51.258Z,18.37
2023-03-13T14:11:09.735Z,18.57
2023-03-13T14:12:35.779Z,18.73
2023-03-13T14:13:38.299Z,18.43
2023-03-13T14:14:40.720Z,18.73
2023-03-13T14:15:45.993Z,18.96
2023-03-13T14:16:51.505Z,18.89
2023-03-13T14:18:00.750Z,18.79
2023-03-13T14:19:03.749Z,18.46
2023-03-13T14:20:16.231Z,18.49
2023-03-13T14:21:23.561Z,18.56
2023-03-13T14:22:26.084Z,18.56
2023-03-13T14:23:32.802Z,18.94
2023-03-13T14:24:36.398Z,19.03
2023-03-13T14:25:49.956Z,18.83
2023-03-13T14:26:52.474Z,18.56
2023-03-13T14:27:55.953Z,18.49
2023-03-13T14:29:02.812Z,18.43
2023-03-13T14:30:09.462Z,18.54
2023-03-13T14:31:22.057Z,18.57
2023-03-13T14:32:26.722Z,18.42
2023-03-13T14:33:29.327Z,18.37
2023-03-13T14:34:32.869Z,18.67
2023-03-13T14:35:35.705Z,18.70
2023-03-13T14:37:14.977Z,18.83
2023-03-13T14:38:25.485Z,18.52
2023-03-13T14:39:33.642Z,18.37
2023-03-13T14:40:39.402Z,18.27
2023-03-13T14:41:51.049Z,18.36
2023-03-13T14:42:56.690Z,18.37
2023-03-13T14:44:14.206Z,18.49
2023-03-13T14:45:23.829Z,18.26
2023-03-13T14:46:30.753Z,18.20
2023-03-13T14:47:33.405Z,17.96
2023-03-13T14:48:35.926Z,18.24
2023-03-13T14:49:38.450Z,18.26
2023-03-13T14:50:41.329Z,18.17
2023-03-13T14:51:44.211Z,18.11
2023-03-13T14:52:50.593Z,18.14